sensor_id;sensor_type;location;lat;lon;timestamp;P1;durP1;ratioP1;P2;durP2;ratioP2
351;SDS011;164;50.784;6.496;2022-10-03T00:01:45;7.55;;;4.55;;
351;SDS011;164;50.784;6.496;2022-10-03T00:04:26;11.25;;;5.10;;
351;SDS011;164;50.784;6.496;2022-10-03T00:07:08;9.30;;;5.82;;
351;SDS011;164;50.784;6.496;2022-10-03T00:09:50;10.38;;;4.95;;
351;SDS011;164;50.784;6.496;2022-10-03T00:12:39;10.27;;;4.50;;
351;SDS011;164;50.784;6.496;2022-10-03T00:15:15;8.38;;;5.15;;
351;SDS011;164;50.784;6.496;2022-10-03T00:17:50;8.00;;;4.65;;
351;SDS011;164;50.784;6.496;2022-10-03T00:20:33;7.25;;;4.38;;
351;SDS011;164;50.784;6.496;2022-10-03T00:23:12;11.48;;;4.25;;
351;SDS011;164;50.784;6.496;2022-10-03T00:25:46;7.80;;;4.70;;
351;SDS011;164;50.784;6.496;2022-10-03T00:28:24;7.55;;;4.72;;
351;SDS011;164;50.784;6.496;2022-10-03T00:31:10;8.73;;;4.28;;
351;SDS011;164;50.784;6.496;2022-10-03T00:33:42;11.13;;;5.43;;
351;SDS011;164;50.784;6.496;2022-10-03T00:36:20;9.80;;;4.45;;
351;SDS011;164;50.784;6.496;2022-10-03T00:39:01;8.43;;;4.07;;
351;SDS011;164;50.784;6.496;2022-10-03T00:41:40;9.32;;;4.50;;
351;SDS011;164;50.784;6.496;2022-10-03T00:44:36;11.73;;;4.07;;
351;SDS011;164;50.784;6.496;2022-10-03T00:53:46;8.52;;;4.55;;
351;SDS011;164;50.784;6.496;2022-10-03T00:56:30;6.63;;;5.00;;
351;SDS011;164;50.784;6.496;2022-10-03T00:59:26;10.82;;;5.10;;
351;SDS011;164;50.784;6.496;2022-10-03T01:02:16;9.70;;;4.05;;
351;SDS011;164;50.784;6.496;2022-10-03T01:04:53;10.50;;;4.63;;
351;SDS011;164;50.784;6.496;2022-10-03T01:07:30;6.45;;;4.85;;
351;SDS011;164;50.784;6.496;2022-10-03T01:10:12;9.65;;;5.28;;
351;SDS011;164;50.784;6.496;2022-10-03T01:12:51;8.02;;;5.40;;
351;SDS011;164;50.784;6.496;2022-10-03T01:15:49;6.57;;;4.63;;
351;SDS011;164;50.784;6.496;2022-10-03T01:18:26;12.40;;;4.53;;
351;SDS011;164;50.784;6.496;2022-10-03T01:21:06;9.50;;;6.30;;
351;SDS011;164;50.784;6.496;2022-10-03T01:26:57;11.23;;;4.63;;
351;SDS011;164;50.784;6.496;2022-10-03T01:29:46;14.25;;;5.10;;
351;SDS011;164;50.784;6.496;2022-10-03T01:32:36;11.75;;;4.82;;
351;SDS011;164;50.784;6.496;2022-10-03T01:35:10;8.95;;;4.68;;
351;SDS011;164;50.784;6.496;2022-10-03T01:37:47;6.95;;;4.28;;
351;SDS011;164;50.784;6.496;2022-10-03T01:40:24;11.05;;;4.80;;
351;SDS011;164;50.784;6.496;2022-10-03T01:43:03;7.32;;;3.92;;
351;SDS011;164;50.784;6.496;2022-10-03T01:45:39;12.02;;;4.93;;
351;SDS011;164;50.784;6.496;2022-10-03T01:48:16;12.43;;;4.30;;
351;SDS011;164;50.784;6.496;2022-10-03T01:50:55;8.65;;;5.10;;
351;SDS011;164;50.784;6.496;2022-10-03T01:53:29;7.65;;;4.20;;
351;SDS011;164;50.784;6.496;2022-10-03T01:56:02;5.28;;;3.90;;
351;SDS011;164;50.784;6.496;2022-10-03T01:58:39;9.85;;;4.70;;
351;SDS011;164;50.784;6.496;2022-10-03T02:01:20;9.77;;;4.75;;
351;SDS011;164;50.784;6.496;2022-10-03T02:03:53;8.95;;;4.50;;
351;SDS011;164;50.784;6.496;2022-10-03T02:06:31;7.88;;;5.13;;
351;SDS011;164;50.784;6.496;2022-10-03T02:09:08;10.77;;;4.18;;
351;SDS011;164;50.784;6.496;2022-10-03T02:14:44;6.85;;;4.32;;
351;SDS011;164;50.784;6.496;2022-10-03T02:17:24;7.85;;;4.25;;
351;SDS011;164;50.784;6.496;2022-10-03T02:19:59;9.65;;;4.90;;
351;SDS011;164;50.784;6.496;2022-10-03T02:22:32;7.18;;;4.65;;
351;SDS011;164;50.784;6.496;2022-10-03T02:25:06;8.18;;;5.15;;
351;SDS011;164;50.784;6.496;2022-10-03T02:30:45;9.13;;;4.72;;
351;SDS011;164;50.784;6.496;2022-10-03T02:33:38;8.73;;;4.72;;
351;SDS011;164;50.784;6.496;2022-10-03T02:36:23;5.68;;;4.32;;
351;SDS011;164;50.784;6.496;2022-10-03T02:42:48;9.40;;;6.13;;
351;SDS011;164;50.784;6.496;2022-10-03T02:45:46;7.07;;;5.10;;
351;SDS011;164;50.784;6.496;2022-10-03T02:48:40;8.93;;;5.53;;
351;SDS011;164;50.784;6.496;2022-10-03T02:51:36;6.90;;;5.18;;
351;SDS011;164;50.784;6.496;2022-10-03T03:00:45;10.07;;;5.70;;
351;SDS011;164;50.784;6.496;2022-10-03T03:03:45;7.00;;;4.68;;
351;SDS011;164;50.784;6.496;2022-10-03T03:06:41;6.65;;;4.35;;
351;SDS011;164;50.784;6.496;2022-10-03T03:09:24;4.82;;;4.55;;
351;SDS011;164;50.784;6.496;2022-10-03T03:12:31;11.05;;;4.72;;
351;SDS011;164;50.784;6.496;2022-10-03T03:15:45;6.38;;;4.07;;
351;SDS011;164;50.784;6.496;2022-10-03T03:18:32;8.50;;;5.80;;
351;SDS011;164;50.784;6.496;2022-10-03T03:21:16;12.00;;;6.10;;
351;SDS011;164;50.784;6.496;2022-10-03T03:23:55;12.77;;;5.15;;
351;SDS011;164;50.784;6.496;2022-10-03T03:26:40;8.27;;;5.55;;
351;SDS011;164;50.784;6.496;2022-10-03T03:29:20;17.00;;;7.82;;
351;SDS011;164;50.784;6.496;2022-10-03T03:31:57;12.57;;;6.70;;
351;SDS011;164;50.784;6.496;2022-10-03T03:34:34;8.63;;;5.90;;
351;SDS011;164;50.784;6.496;2022-10-03T03:37:12;12.43;;;5.60;;
351;SDS011;164;50.784;6.496;2022-10-03T03:39:49;11.55;;;6.63;;
351;SDS011;164;50.784;6.496;2022-10-03T03:42:41;10.55;;;6.18;;
351;SDS011;164;50.784;6.496;2022-10-03T03:45:44;8.32;;;6.20;;
351;SDS011;164;50.784;6.496;2022-10-03T03:48:29;10.25;;;5.85;;
351;SDS011;164;50.784;6.496;2022-10-03T03:51:20;11.00;;;6.45;;
351;SDS011;164;50.784;6.496;2022-10-03T03:53:59;8.38;;;5.70;;
351;SDS011;164;50.784;6.496;2022-10-03T03:56:43;11.57;;;7.47;;
351;SDS011;164;50.784;6.496;2022-10-03T03:59:38;9.60;;;6.20;;
351;SDS011;164;50.784;6.496;2022-10-03T04:02:19;12.48;;;6.28;;
351;SDS011;164;50.784;6.496;2022-10-03T04:05:05;8.95;;;5.95;;
351;SDS011;164;50.784;6.496;2022-10-03T04:07:43;9.10;;;6.00;;
351;SDS011;164;50.784;6.496;2022-10-03T04:10:30;13.10;;;5.85;;
351;SDS011;164;50.784;6.496;2022-10-03T04:13:12;7.50;;;6.55;;
351;SDS011;164;50.784;6.496;2022-10-03T04:16:12;10.23;;;7.20;;
351;SDS011;164;50.784;6.496;2022-10-03T04:19:05;11.35;;;7.93;;
351;SDS011;164;50.784;6.496;2022-10-03T04:21:39;11.32;;;8.35;;
351;SDS011;164;50.784;6.496;2022-10-03T04:24:34;9.73;;;7.75;;
351;SDS011;164;50.784;6.496;2022-10-03T04:27:29;10.30;;;8.25;;
351;SDS011;164;50.784;6.496;2022-10-03T04:30:13;11.77;;;8.25;;
351;SDS011;164;50.784;6.496;2022-10-03T04:33:06;11.18;;;7.57;;
351;SDS011;164;50.784;6.496;2022-10-03T04:35:51;8.90;;;8.20;;
351;SDS011;164;50.784;6.496;2022-10-03T04:38:40;12.40;;;8.77;;
351;SDS011;164;50.784;6.496;2022-10-03T04:41:18;10.15;;;7.95;;
351;SDS011;164;50.784;6.496;2022-10-03T04:43:57;12.13;;;8.23;;
351;SDS011;164;50.784;6.496;2022-10-03T04:46:35;9.15;;;7.80;;
351;SDS011;164;50.784;6.496;2022-10-03T04:49:10;12.63;;;9.13;;
351;SDS011;164;50.784;6.496;2022-10-03T04:51:45;9.13;;;8.05;;
351;SDS011;164;50.784;6.496;2022-10-03T04:54:22;10.55;;;8.50;;
351;SDS011;164;50.784;6.496;2022-10-03T04:56:57;15.25;;;8.55;;
351;SDS011;164;50.784;6.496;2022-10-03T04:59:39;8.50;;;7.40;;
351;SDS011;164;50.784;6.496;2022-10-03T05:02:17;10.35;;;8.15;;
351;SDS011;164;50.784;6.496;2022-10-03T05:04:53;7.72;;;6.28;;
351;SDS011;164;50.784;6.496;2022-10-03T05:07:34;8.93;;;6.35;;
351;SDS011;164;50.784;6.496;2022-10-03T05:10:17;11.65;;;6.88;;
351;SDS011;164;50.784;6.496;2022-10-03T05:12:53;13.07;;;6.35;;
351;SDS011;164;50.784;6.496;2022-10-03T05:15:29;8.18;;;5.65;;
351;SDS011;164;50.784;6.496;2022-10-03T05:18:01;8.63;;;5.63;;
351;SDS011;164;50.784;6.496;2022-10-03T05:20:40;7.30;;;5.45;;
351;SDS011;164;50.784;6.496;2022-10-03T05:23:22;7.43;;;5.63;;
351;SDS011;164;50.784;6.496;2022-10-03T05:25:57;5.95;;;5.30;;
351;SDS011;164;50.784;6.496;2022-10-03T05:28:41;9.13;;;5.63;;
351;SDS011;164;50.784;6.496;2022-10-03T05:31:21;7.85;;;4.50;;
351;SDS011;164;50.784;6.496;2022-10-03T05:33:59;9.57;;;6.32;;
351;SDS011;164;50.784;6.496;2022-10-03T05:36:32;6.10;;;4.85;;
351;SDS011;164;50.784;6.496;2022-10-03T05:39:22;7.47;;;5.18;;
351;SDS011;164;50.784;6.496;2022-10-03T05:41:52;8.40;;;5.10;;
351;SDS011;164;50.784;6.496;2022-10-03T05:44:25;4.55;;;4.22;;
351;SDS011;164;50.784;6.496;2022-10-03T05:47:06;6.00;;;4.65;;
351;SDS011;164;50.784;6.496;2022-10-03T05:50:07;8.10;;;4.70;;
351;SDS011;164;50.784;6.496;2022-10-03T05:52:58;5.95;;;4.45;;
351;SDS011;164;50.784;6.496;2022-10-03T05:55:42;9.93;;;5.65;;
351;SDS011;164;50.784;6.496;2022-10-03T05:58:27;7.20;;;5.38;;
351;SDS011;164;50.784;6.496;2022-10-03T06:01:16;9.68;;;5.70;;
351;SDS011;164;50.784;6.496;2022-10-03T06:04:00;7.88;;;4.47;;
351;SDS011;164;50.784;6.496;2022-10-03T06:06:43;7.10;;;4.00;;
351;SDS011;164;50.784;6.496;2022-10-03T06:12:23;5.95;;;4.63;;
351;SDS011;164;50.784;6.496;2022-10-03T06:18:06;6.47;;;4.22;;
351;SDS011;164;50.784;6.496;2022-10-03T06:27:18;7.53;;;4.30;;
351;SDS011;164;50.784;6.496;2022-10-03T06:30:10;5.63;;;4.40;;
351;SDS011;164;50.784;6.496;2022-10-03T06:36:18;7.60;;;4.13;;
351;SDS011;164;50.784;6.496;2022-10-03T06:48:33;8.50;;;5.50;;
351;SDS011;164;50.784;6.496;2022-10-03T06:54:33;12.25;;;5.90;;
351;SDS011;164;50.784;6.496;2022-10-03T06:57:23;10.40;;;5.22;;
351;SDS011;164;50.784;6.496;2022-10-03T07:00:07;38.63;;;36.72;;
351;SDS011;164;50.784;6.496;2022-10-03T07:02:55;21.83;;;20.17;;
351;SDS011;164;50.784;6.496;2022-10-03T07:12:06;11.32;;;6.50;;
351;SDS011;164;50.784;6.496;2022-10-03T07:15:07;8.32;;;5.35;;
351;SDS011;164;50.784;6.496;2022-10-03T07:18:23;10.45;;;6.15;;
351;SDS011;164;50.784;6.496;2022-10-03T07:21:23;13.95;;;5.57;;
351;SDS011;164;50.784;6.496;2022-10-03T07:24:29;8.88;;;5.15;;
351;SDS011;164;50.784;6.496;2022-10-03T07:27:23;8.80;;;5.20;;
351;SDS011;164;50.784;6.496;2022-10-03T07:30:14;9.93;;;5.28;;
351;SDS011;164;50.784;6.496;2022-10-03T07:32:57;9.40;;;5.80;;
351;SDS011;164;50.784;6.496;2022-10-03T07:35:51;12.10;;;6.25;;
351;SDS011;164;50.784;6.496;2022-10-03T07:38:56;9.98;;;5.30;;
351;SDS011;164;50.784;6.496;2022-10-03T07:42:03;7.60;;;5.00;;
351;SDS011;164;50.784;6.496;2022-10-03T07:47:54;7.47;;;4.50;;
351;SDS011;164;50.784;6.496;2022-10-03T07:50:47;14.25;;;4.95;;
351;SDS011;164;50.784;6.496;2022-10-03T07:53:39;8.57;;;4.75;;
351;SDS011;164;50.784;6.496;2022-10-03T07:56:42;11.10;;;4.13;;
351;SDS011;164;50.784;6.496;2022-10-03T08:02:34;9.82;;;3.35;;
351;SDS011;164;50.784;6.496;2022-10-03T08:05:21;5.90;;;3.63;;
351;SDS011;164;50.784;6.496;2022-10-03T08:08:01;7.43;;;3.70;;
351;SDS011;164;50.784;6.496;2022-10-03T08:10:55;13.88;;;3.85;;
351;SDS011;164;50.784;6.496;2022-10-03T08:13:47;9.88;;;4.63;;
351;SDS011;164;50.784;6.496;2022-10-03T08:20:00;6.53;;;3.70;;
351;SDS011;164;50.784;6.496;2022-10-03T08:22:50;7.97;;;5.07;;
351;SDS011;164;50.784;6.496;2022-10-03T08:25:32;8.45;;;3.85;;
351;SDS011;164;50.784;6.496;2022-10-03T08:31:14;13.45;;;3.45;;
351;SDS011;164;50.784;6.496;2022-10-03T08:33:59;8.43;;;4.25;;
351;SDS011;164;50.784;6.496;2022-10-03T08:37:03;14.25;;;6.93;;
351;SDS011;164;50.784;6.496;2022-10-03T08:39:57;10.90;;;4.20;;
351;SDS011;164;50.784;6.496;2022-10-03T08:46:20;8.70;;;3.53;;
351;SDS011;164;50.784;6.496;2022-10-03T08:49:21;7.85;;;3.95;;
351;SDS011;164;50.784;6.496;2022-10-03T08:52:19;7.25;;;4.47;;
351;SDS011;164;50.784;6.496;2022-10-03T08:58:16;7.80;;;3.53;;
351;SDS011;164;50.784;6.496;2022-10-03T09:06:50;6.28;;;2.42;;
351;SDS011;164;50.784;6.496;2022-10-03T09:12:51;7.10;;;3.05;;
351;SDS011;164;50.784;6.496;2022-10-03T09:15:41;7.00;;;3.83;;
351;SDS011;164;50.784;6.496;2022-10-03T09:18:33;6.50;;;4.22;;
351;SDS011;164;50.784;6.496;2022-10-03T09:21:34;7.15;;;3.17;;
351;SDS011;164;50.784;6.496;2022-10-03T09:27:23;8.63;;;2.90;;
351;SDS011;164;50.784;6.496;2022-10-03T09:30:15;15.98;;;4.85;;
351;SDS011;164;50.784;6.496;2022-10-03T09:39:10;4.80;;;1.80;;
351;SDS011;164;50.784;6.496;2022-10-03T09:42:13;6.55;;;3.25;;
351;SDS011;164;50.784;6.496;2022-10-03T09:45:09;5.80;;;2.58;;
351;SDS011;164;50.784;6.496;2022-10-03T09:51:13;10.43;;;3.88;;
351;SDS011;164;50.784;6.496;2022-10-03T09:57:07;4.65;;;1.73;;
351;SDS011;164;50.784;6.496;2022-10-03T10:00:10;5.80;;;2.00;;
351;SDS011;164;50.784;6.496;2022-10-03T10:03:02;6.90;;;1.50;;
351;SDS011;164;50.784;6.496;2022-10-03T10:15:24;10.02;;;2.40;;
351;SDS011;164;50.784;6.496;2022-10-03T10:21:18;4.53;;;1.98;;
351;SDS011;164;50.784;6.496;2022-10-03T10:24:19;6.68;;;1.60;;
351;SDS011;164;50.784;6.496;2022-10-03T10:30:25;4.88;;;1.48;;
351;SDS011;164;50.784;6.496;2022-10-03T10:39:35;2.58;;;0.70;;
351;SDS011;164;50.784;6.496;2022-10-03T10:48:46;7.45;;;1.88;;
351;SDS011;164;50.784;6.496;2022-10-03T10:54:47;1.98;;;1.30;;
351;SDS011;164;50.784;6.496;2022-10-03T10:57:48;5.70;;;1.55;;
351;SDS011;164;50.784;6.496;2022-10-03T11:00:38;7.50;;;2.85;;
351;SDS011;164;50.784;6.496;2022-10-03T11:13:09;3.67;;;1.40;;
351;SDS011;164;50.784;6.496;2022-10-03T11:16:27;4.55;;;1.50;;
351;SDS011;164;50.784;6.496;2022-10-03T11:19:36;3.70;;;1.50;;
351;SDS011;164;50.784;6.496;2022-10-03T11:22:49;4.38;;;2.25;;
351;SDS011;164;50.784;6.496;2022-10-03T11:29:11;5.78;;;1.88;;
351;SDS011;164;50.784;6.496;2022-10-03T11:32:20;2.03;;;1.17;;
351;SDS011;164;50.784;6.496;2022-10-03T11:38:18;1.90;;;1.00;;
351;SDS011;164;50.784;6.496;2022-10-03T11:40:54;3.83;;;1.17;;
351;SDS011;164;50.784;6.496;2022-10-03T11:43:40;3.88;;;1.40;;
351;SDS011;164;50.784;6.496;2022-10-03T11:46:42;5.22;;;1.35;;
351;SDS011;164;50.784;6.496;2022-10-03T11:49:25;3.15;;;1.23;;
351;SDS011;164;50.784;6.496;2022-10-03T11:52:06;6.45;;;1.70;;
351;SDS011;164;50.784;6.496;2022-10-03T11:54:46;6.00;;;1.50;;
351;SDS011;164;50.784;6.496;2022-10-03T11:57:31;6.85;;;1.67;;
351;SDS011;164;50.784;6.496;2022-10-03T12:00:04;4.60;;;1.63;;
351;SDS011;164;50.784;6.496;2022-10-03T12:02:49;4.88;;;1.35;;
351;SDS011;164;50.784;6.496;2022-10-03T12:05:36;3.17;;;1.85;;
351;SDS011;164;50.784;6.496;2022-10-03T12:08:15;6.20;;;1.25;;
351;SDS011;164;50.784;6.496;2022-10-03T12:11:06;4.07;;;2.00;;
351;SDS011;164;50.784;6.496;2022-10-03T12:13:42;4.30;;;1.40;;
351;SDS011;164;50.784;6.496;2022-10-03T12:16:16;5.38;;;1.88;;
351;SDS011;164;50.784;6.496;2022-10-03T12:18:53;3.40;;;1.40;;
351;SDS011;164;50.784;6.496;2022-10-03T12:21:30;5.95;;;2.10;;
351;SDS011;164;50.784;6.496;2022-10-03T12:26:58;5.45;;;1.70;;
351;SDS011;164;50.784;6.496;2022-10-03T12:29:32;4.15;;;1.60;;
351;SDS011;164;50.784;6.496;2022-10-03T12:32:17;5.20;;;1.98;;
351;SDS011;164;50.784;6.496;2022-10-03T12:34:55;3.25;;;1.55;;
351;SDS011;164;50.784;6.496;2022-10-03T12:37:39;2.45;;;1.38;;
351;SDS011;164;50.784;6.496;2022-10-03T12:40:19;2.80;;;1.50;;
351;SDS011;164;50.784;6.496;2022-10-03T12:42:57;5.32;;;1.50;;
351;SDS011;164;50.784;6.496;2022-10-03T12:45:33;2.95;;;1.25;;
351;SDS011;164;50.784;6.496;2022-10-03T12:51:03;2.72;;;1.42;;
351;SDS011;164;50.784;6.496;2022-10-03T12:53:45;3.95;;;1.60;;
351;SDS011;164;50.784;6.496;2022-10-03T12:56:21;4.13;;;1.38;;
351;SDS011;164;50.784;6.496;2022-10-03T12:59:05;2.25;;;1.00;;
351;SDS011;164;50.784;6.496;2022-10-03T13:01:48;3.50;;;1.88;;
351;SDS011;164;50.784;6.496;2022-10-03T13:04:31;2.55;;;1.60;;
351;SDS011;164;50.784;6.496;2022-10-03T13:07:09;2.50;;;1.30;;
351;SDS011;164;50.784;6.496;2022-10-03T13:12:44;1.98;;;1.10;;
351;SDS011;164;50.784;6.496;2022-10-03T13:18:28;4.68;;;2.22;;
351;SDS011;164;50.784;6.496;2022-10-03T13:21:08;4.53;;;1.25;;
351;SDS011;164;50.784;6.496;2022-10-03T13:23:42;1.48;;;1.02;;
351;SDS011;164;50.784;6.496;2022-10-03T13:26:15;2.05;;;0.90;;
351;SDS011;164;50.784;6.496;2022-10-03T13:28:51;3.92;;;1.50;;
351;SDS011;164;50.784;6.496;2022-10-03T13:31:38;3.75;;;1.08;;
351;SDS011;164;50.784;6.496;2022-10-03T13:34:20;2.45;;;1.42;;
351;SDS011;164;50.784;6.496;2022-10-03T13:36:50;2.63;;;1.73;;
351;SDS011;164;50.784;6.496;2022-10-03T13:39:21;2.70;;;1.20;;
351;SDS011;164;50.784;6.496;2022-10-03T13:41:58;2.85;;;1.20;;
351;SDS011;164;50.784;6.496;2022-10-03T13:44:35;5.47;;;1.33;;
351;SDS011;164;50.784;6.496;2022-10-03T13:47:09;1.55;;;0.77;;
351;SDS011;164;50.784;6.496;2022-10-03T13:49:51;1.50;;;0.88;;
351;SDS011;164;50.784;6.496;2022-10-03T13:52:22;3.47;;;1.30;;
351;SDS011;164;50.784;6.496;2022-10-03T13:55:08;5.75;;;1.20;;
351;SDS011;164;50.784;6.496;2022-10-03T13:57:45;4.70;;;1.30;;
351;SDS011;164;50.784;6.496;2022-10-03T14:00:19;2.58;;;1.20;;
351;SDS011;164;50.784;6.496;2022-10-03T14:05:49;3.63;;;1.17;;
351;SDS011;164;50.784;6.496;2022-10-03T14:11:40;3.83;;;1.40;;
351;SDS011;164;50.784;6.496;2022-10-03T14:14:23;4.72;;;1.73;;
351;SDS011;164;50.784;6.496;2022-10-03T14:17:01;2.92;;;1.30;;
351;SDS011;164;50.784;6.496;2022-10-03T14:19:38;3.13;;;1.50;;
351;SDS011;164;50.784;6.496;2022-10-03T14:22:17;2.35;;;1.00;;
351;SDS011;164;50.784;6.496;2022-10-03T14:24:55;3.65;;;1.80;;
351;SDS011;164;50.784;6.496;2022-10-03T14:27:39;4.55;;;1.00;;
351;SDS011;164;50.784;6.496;2022-10-03T14:30:11;4.35;;;1.50;;
351;SDS011;164;50.784;6.496;2022-10-03T14:32:43;4.28;;;1.55;;
351;SDS011;164;50.784;6.496;2022-10-03T14:35:34;4.93;;;1.08;;
351;SDS011;164;50.784;6.496;2022-10-03T14:38:15;3.65;;;1.33;;
351;SDS011;164;50.784;6.496;2022-10-03T14:41:13;3.97;;;1.23;;
351;SDS011;164;50.784;6.496;2022-10-03T14:43:45;3.75;;;1.10;;
351;SDS011;164;50.784;6.496;2022-10-03T14:46:19;1.42;;;1.00;;
351;SDS011;164;50.784;6.496;2022-10-03T14:48:49;2.05;;;0.85;;
351;SDS011;164;50.784;6.496;2022-10-03T14:51:23;3.88;;;1.10;;
351;SDS011;164;50.784;6.496;2022-10-03T14:53:55;4.15;;;1.23;;
351;SDS011;164;50.784;6.496;2022-10-03T14:56:26;1.67;;;0.60;;
351;SDS011;164;50.784;6.496;2022-10-03T14:58:56;4.03;;;1.20;;
351;SDS011;164;50.784;6.496;2022-10-03T15:01:28;2.55;;;1.13;;
351;SDS011;164;50.784;6.496;2022-10-03T15:03:59;4.35;;;1.55;;
351;SDS011;164;50.784;6.496;2022-10-03T15:06:31;3.40;;;1.10;;
351;SDS011;164;50.784;6.496;2022-10-03T15:09:01;3.08;;;0.98;;
351;SDS011;164;50.784;6.496;2022-10-03T15:11:34;2.78;;;1.10;;
351;SDS011;164;50.784;6.496;2022-10-03T15:14:04;3.65;;;1.58;;
351;SDS011;164;50.784;6.496;2022-10-03T15:16:43;3.70;;;1.05;;
351;SDS011;164;50.784;6.496;2022-10-03T15:19:12;4.03;;;1.80;;
351;SDS011;164;50.784;6.496;2022-10-03T15:21:43;3.90;;;1.20;;
351;SDS011;164;50.784;6.496;2022-10-03T15:24:17;3.75;;;0.93;;
351;SDS011;164;50.784;6.496;2022-10-03T15:26:48;1.98;;;0.93;;
351;SDS011;164;50.784;6.496;2022-10-03T15:29:19;4.03;;;1.00;;
351;SDS011;164;50.784;6.496;2022-10-03T15:31:50;3.05;;;1.20;;
351;SDS011;164;50.784;6.496;2022-10-03T15:34:20;5.20;;;1.33;;
351;SDS011;164;50.784;6.496;2022-10-03T15:36:51;2.13;;;1.05;;
351;SDS011;164;50.784;6.496;2022-10-03T15:39:23;3.67;;;1.30;;
351;SDS011;164;50.784;6.496;2022-10-03T15:41:53;2.40;;;1.20;;
351;SDS011;164;50.784;6.496;2022-10-03T15:44:28;5.50;;;1.83;;
351;SDS011;164;50.784;6.496;2022-10-03T15:47:05;3.10;;;1.10;;
351;SDS011;164;50.784;6.496;2022-10-03T15:49:36;4.00;;;1.08;;
351;SDS011;164;50.784;6.496;2022-10-03T15:52:07;4.10;;;1.40;;
351;SDS011;164;50.784;6.496;2022-10-03T15:54:42;5.55;;;1.60;;
351;SDS011;164;50.784;6.496;2022-10-03T15:57:15;2.90;;;1.35;;
351;SDS011;164;50.784;6.496;2022-10-03T15:59:44;4.55;;;1.33;;
351;SDS011;164;50.784;6.496;2022-10-03T16:02:20;0.95;;;0.80;;
351;SDS011;164;50.784;6.496;2022-10-03T16:04:52;4.15;;;1.25;;
351;SDS011;164;50.784;6.496;2022-10-03T16:07:23;3.13;;;1.42;;
351;SDS011;164;50.784;6.496;2022-10-03T16:10:01;1.98;;;1.08;;
351;SDS011;164;50.784;6.496;2022-10-03T16:12:46;3.22;;;1.10;;
351;SDS011;164;50.784;6.496;2022-10-03T16:15:21;4.75;;;1.25;;
351;SDS011;164;50.784;6.496;2022-10-03T16:17:55;1.98;;;1.00;;
351;SDS011;164;50.784;6.496;2022-10-03T16:20:26;3.28;;;1.38;;
351;SDS011;164;50.784;6.496;2022-10-03T16:22:56;3.25;;;1.10;;
351;SDS011;164;50.784;6.496;2022-10-03T16:25:28;4.65;;;1.38;;
351;SDS011;164;50.784;6.496;2022-10-03T16:28:04;3.95;;;1.50;;
351;SDS011;164;50.784;6.496;2022-10-03T16:30:34;1.58;;;1.10;;
351;SDS011;164;50.784;6.496;2022-10-03T16:33:10;2.42;;;1.58;;
351;SDS011;164;50.784;6.496;2022-10-03T16:35:42;3.22;;;1.65;;
351;SDS011;164;50.784;6.496;2022-10-03T16:38:17;2.45;;;1.10;;
351;SDS011;164;50.784;6.496;2022-10-03T16:40:51;2.03;;;1.20;;
351;SDS011;164;50.784;6.496;2022-10-03T16:43:21;3.60;;;1.75;;
351;SDS011;164;50.784;6.496;2022-10-03T16:45:50;4.15;;;1.40;;
351;SDS011;164;50.784;6.496;2022-10-03T16:48:20;1.95;;;1.00;;
351;SDS011;164;50.784;6.496;2022-10-03T16:51:12;4.45;;;1.30;;
351;SDS011;164;50.784;6.496;2022-10-03T16:53:43;2.67;;;1.40;;
351;SDS011;164;50.784;6.496;2022-10-03T16:56:13;3.35;;;2.00;;
351;SDS011;164;50.784;6.496;2022-10-03T16:58:43;1.85;;;1.20;;
351;SDS011;164;50.784;6.496;2022-10-03T17:01:13;1.90;;;1.42;;
351;SDS011;164;50.784;6.496;2022-10-03T17:03:53;3.13;;;1.55;;
351;SDS011;164;50.784;6.496;2022-10-03T17:06:25;5.57;;;2.28;;
351;SDS011;164;50.784;6.496;2022-10-03T17:08:56;3.63;;;1.55;;
351;SDS011;164;50.784;6.496;2022-10-03T17:11:24;4.95;;;1.88;;
351;SDS011;164;50.784;6.496;2022-10-03T17:13:53;2.78;;;1.60;;
351;SDS011;164;50.784;6.496;2022-10-03T17:16:28;4.13;;;1.40;;
351;SDS011;164;50.784;6.496;2022-10-03T17:19:11;5.93;;;1.17;;
351;SDS011;164;50.784;6.496;2022-10-03T17:21:43;3.60;;;1.58;;
351;SDS011;164;50.784;6.496;2022-10-03T17:24:20;3.20;;;1.90;;
351;SDS011;164;50.784;6.496;2022-10-03T17:26:55;4.18;;;1.27;;
351;SDS011;164;50.784;6.496;2022-10-03T17:29:27;3.47;;;1.40;;
351;SDS011;164;50.784;6.496;2022-10-03T17:31:59;6.97;;;2.10;;
351;SDS011;164;50.784;6.496;2022-10-03T17:34:29;6.57;;;1.70;;
351;SDS011;164;50.784;6.496;2022-10-03T17:37:11;3.10;;;2.00;;
351;SDS011;164;50.784;6.496;2022-10-03T17:40:13;4.43;;;2.25;;
351;SDS011;164;50.784;6.496;2022-10-03T17:42:46;3.95;;;2.10;;
351;SDS011;164;50.784;6.496;2022-10-03T17:45:24;4.40;;;2.10;;
351;SDS011;164;50.784;6.496;2022-10-03T17:47:58;8.57;;;2.70;;
351;SDS011;164;50.784;6.496;2022-10-03T17:50:35;4.65;;;2.42;;
351;SDS011;164;50.784;6.496;2022-10-03T17:53:05;5.10;;;2.10;;
351;SDS011;164;50.784;6.496;2022-10-03T17:55:43;3.05;;;2.00;;
351;SDS011;164;50.784;6.496;2022-10-03T17:58:19;3.92;;;2.03;;
351;SDS011;164;50.784;6.496;2022-10-03T18:00:57;3.47;;;2.05;;
351;SDS011;164;50.784;6.496;2022-10-03T18:03:32;5.50;;;2.63;;
351;SDS011;164;50.784;6.496;2022-10-03T18:09:09;6.82;;;2.80;;
351;SDS011;164;50.784;6.496;2022-10-03T18:11:48;3.35;;;2.08;;
351;SDS011;164;50.784;6.496;2022-10-03T18:14:18;6.80;;;3.15;;
351;SDS011;164;50.784;6.496;2022-10-03T18:16:57;2.67;;;2.05;;
351;SDS011;164;50.784;6.496;2022-10-03T18:19:32;5.70;;;2.30;;
351;SDS011;164;50.784;6.496;2022-10-03T18:22:14;4.15;;;3.42;;
351;SDS011;164;50.784;6.496;2022-10-03T18:24:51;10.73;;;3.10;;
351;SDS011;164;50.784;6.496;2022-10-03T18:27:29;3.67;;;2.83;;
351;SDS011;164;50.784;6.496;2022-10-03T18:30:13;2.38;;;2.10;;
351;SDS011;164;50.784;6.496;2022-10-03T18:32:42;4.43;;;2.92;;
351;SDS011;164;50.784;6.496;2022-10-03T18:35:11;4.97;;;2.42;;
351;SDS011;164;50.784;6.496;2022-10-03T18:37:53;5.97;;;3.08;;
351;SDS011;164;50.784;6.496;2022-10-03T18:40:27;4.40;;;3.00;;
351;SDS011;164;50.784;6.496;2022-10-03T18:42:57;4.68;;;3.10;;
351;SDS011;164;50.784;6.496;2022-10-03T18:45:27;8.48;;;3.58;;
351;SDS011;164;50.784;6.496;2022-10-03T18:47:58;10.02;;;3.38;;
351;SDS011;164;50.784;6.496;2022-10-03T18:50:33;5.32;;;3.20;;
351;SDS011;164;50.784;6.496;2022-10-03T18:53:14;4.93;;;3.55;;
351;SDS011;164;50.784;6.496;2022-10-03T18:55:47;6.07;;;3.60;;
351;SDS011;164;50.784;6.496;2022-10-03T18:58:20;5.53;;;3.35;;
351;SDS011;164;50.784;6.496;2022-10-03T19:00:50;6.88;;;3.40;;
351;SDS011;164;50.784;6.496;2022-10-03T19:03:22;4.55;;;3.60;;
351;SDS011;164;50.784;6.496;2022-10-03T19:05:56;6.75;;;3.05;;
351;SDS011;164;50.784;6.496;2022-10-03T19:08:28;6.38;;;3.50;;
351;SDS011;164;50.784;6.496;2022-10-03T19:11:08;8.15;;;4.15;;
351;SDS011;164;50.784;6.496;2022-10-03T19:13:41;11.70;;;4.55;;
351;SDS011;164;50.784;6.496;2022-10-03T19:16:22;4.57;;;3.40;;
351;SDS011;164;50.784;6.496;2022-10-03T19:19:04;7.10;;;3.50;;
351;SDS011;164;50.784;6.496;2022-10-03T19:21:36;3.55;;;3.35;;
351;SDS011;164;50.784;6.496;2022-10-03T19:24:05;5.72;;;3.90;;
351;SDS011;164;50.784;6.496;2022-10-03T19:26:42;5.22;;;3.38;;
351;SDS011;164;50.784;6.496;2022-10-03T19:29:11;5.57;;;2.80;;
351;SDS011;164;50.784;6.496;2022-10-03T19:31:42;5.65;;;4.35;;
351;SDS011;164;50.784;6.496;2022-10-03T19:34:18;8.45;;;4.28;;
351;SDS011;164;50.784;6.496;2022-10-03T19:36:49;8.00;;;3.60;;
351;SDS011;164;50.784;6.496;2022-10-03T19:39:17;7.63;;;3.00;;
351;SDS011;164;50.784;6.496;2022-10-03T19:41:48;6.95;;;3.40;;
351;SDS011;164;50.784;6.496;2022-10-03T19:44:19;6.20;;;3.58;;
351;SDS011;164;50.784;6.496;2022-10-03T19:46:58;8.65;;;4.32;;
351;SDS011;164;50.784;6.496;2022-10-03T19:49:44;9.68;;;3.38;;
351;SDS011;164;50.784;6.496;2022-10-03T19:52:20;7.75;;;3.80;;
351;SDS011;164;50.784;6.496;2022-10-03T19:54:57;5.10;;;3.20;;
351;SDS011;164;50.784;6.496;2022-10-03T19:57:29;6.82;;;4.20;;
351;SDS011;164;50.784;6.496;2022-10-03T20:00:18;7.50;;;3.75;;
351;SDS011;164;50.784;6.496;2022-10-03T20:02:52;4.80;;;3.10;;
351;SDS011;164;50.784;6.496;2022-10-03T20:05:36;8.82;;;3.20;;